Time;durP1;ratioP1;P1;durP2;ratioP2;P2;SDS_P1;SDS_P2;PMS_P1;PMS_P2;Temp;Humidity;BMP_temperature;BMP_pressure;BME280_temperature;BME280_humidity;BME280_pressure;Samples;Min_cycle;Max_cycle;Signal;HPM_P1;HPM_P2
2024/03/13 00:02:15;;;;;;;49.30;16.33;;;10.40;99.90;;;;;;6279604;22;38557;-79
2024/03/13 00:04:43;;;;;;;53.28;19.20;;;10.40;99.90;;;;;;6282706;22;37333;-79
2024/03/13 00:07:13;;;;;;;48.17;15.98;;;10.40;99.90;;;;;;6280404;22;37316;-78
2024/03/13 00:09:47;;;;;;;41.45;16.83;;;10.40;99.90;;;;;;6311838;22;38857;-78
2024/03/13 00:12:16;;;;;;;52.72;18.35;;;10.40;99.90;;;;;;6313260;22;38471;-79
2024/03/13 00:14:49;;;;;;;45.97;16.85;;;10.40;99.90;;;;;;6315907;22;38685;-79
2024/03/13 00:17:22;;;;;;;60.90;19.13;;;10.40;99.90;;;;;;6313671;22;37467;-79
2024/03/13 00:19:48;;;;;;;;;;;10.40;99.90;;;;;;6287909;22;37981;-78
2024/03/13 00:22:18;;;;;;;56.20;18.23;;;10.40;99.90;;;;;;6316256;22;39688;-79
2024/03/13 00:24:49;;;;;;;69.72;19.50;;;10.40;99.90;;;;;;6318059;22;38544;-78
2024/03/13 00:27:16;;;;;;;52.13;17.17;;;10.40;99.90;;;;;;6285720;22;36546;-79
2024/03/13 00:29:46;;;;;;;48.67;16.40;;;10.40;99.90;;;;;;6317306;22;38882;-80
2024/03/13 00:32:14;;;;;;;48.60;17.52;;;10.40;99.90;;;;;;6285694;22;37739;-79
2024/03/13 00:34:43;;;;;;;41.60;16.75;;;10.40;99.90;;;;;;6283226;22;38643;-79
2024/03/13 00:37:16;;;;;;;67.60;19.27;;;10.40;99.90;;;;;;6281873;22;36817;-79
2024/03/13 00:39:43;;;;;;;64.65;19.27;;;10.40;99.90;;;;;;6313763;22;39056;-80
2024/03/13 00:42:11;;;;;;;58.88;18.15;;;10.40;99.90;;;;;;6310829;22;38798;-79
2024/03/13 00:44:46;;;;;;;57.90;18.77;;;10.40;99.90;;;;;;6310627;22;38469;-78
2024/03/13 00:47:14;;;;;;;61.10;19.33;;;10.40;99.90;;;;;;6287058;22;36112;-78
2024/03/13 00:49:47;;;;;;;69.63;21.13;;;10.40;99.90;;;;;;6317059;22;39025;-78
2024/03/13 00:52:14;;;;;;;81.88;21.38;;;10.40;99.90;;;;;;6287818;22;37712;-78
2024/03/13 00:54:44;;;;;;;50.97;15.77;;;10.50;99.90;;;;;;6319029;22;38032;-79
2024/03/13 00:57:13;;;;;;;58.55;16.02;;;10.50;99.90;;;;;;6315171;22;38364;-79
2024/03/13 00:59:40;;;;;;;56.67;14.82;;;10.40;99.90;;;;;;6286452;22;39094;-79
2024/03/13 01:02:13;;;;;;;42.47;13.13;;;10.40;99.90;;;;;;6286105;22;37525;-79
2024/03/13 01:04:42;;;;;;;59.17;14.37;;;10.40;99.90;;;;;;6284921;22;37218;-79
2024/03/13 01:07:08;;;;;;;35.27;12.07;;;10.40;99.90;;;;;;6312367;22;37634;-78
2024/03/13 01:09:34;;;;;;;40.38;11.63;;;10.40;99.90;;;;;;6286128;22;37689;-79
2024/03/13 01:12:01;;;;;;;36.37;11.83;;;10.40;99.90;;;;;;6285482;22;37485;-78
2024/03/13 01:14:27;;;;;;;35.20;11.27;;;10.40;99.90;;;;;;6284497;22;46583;-79
2024/03/13 01:16:55;;;;;;;34.53;10.90;;;10.40;99.90;;;;;;6282665;22;37535;-78
2024/03/13 01:19:22;;;;;;;33.57;11.40;;;10.40;99.90;;;;;;6311370;22;38825;-78
2024/03/13 01:22:03;;;;;;;32.80;11.20;;;10.40;99.90;;;;;;6284860;22;38231;-78
2024/03/13 01:24:29;;;;;;;28.13;10.33;;;10.40;99.90;;;;;;6282811;22;47289;-78
2024/03/13 01:26:55;;;;;;;26.33;10.10;;;10.40;99.90;;;;;;6312925;22;38057;-78
2024/03/13 01:29:21;;;;;;;27.07;11.23;;;10.40;99.90;;;;;;6280854;22;38658;-78
2024/03/13 01:31:48;;;;;;;30.70;10.77;;;10.40;99.90;;;;;;6282533;22;37674;-79
2024/03/13 01:34:14;;;;;;;31.30;11.80;;;10.40;99.90;;;;;;6311764;22;37794;-78
2024/03/13 01:39:32;;;;;;;39.58;14.18;;;10.40;99.90;;;;;;6250220;22;48965;-78
2024/03/13 01:56:24;;;;;;;45.73;16.87;;;10.30;99.90;;;;;;6308856;22;39127;-78
2024/03/13 01:59:03;;;;;;;46.20;17.03;;;10.30;99.90;;;;;;6281626;22;37782;-78
2024/03/13 02:04:05;;;;;;;46.77;16.37;;;10.30;99.90;;;;;;6302658;22;20015;-79
2024/03/13 02:06:31;;;;;;;54.27;17.33;;;10.40;99.90;;;;;;6282087;22;37369;-79
2024/03/13 02:08:58;;;;;;;53.40;17.77;;;10.30;99.90;;;;;;6279496;22;37888;-78
2024/03/13 02:11:24;;;;;;;47.07;17.90;;;10.30;99.90;;;;;;6310132;22;38925;-78
2024/03/13 02:13:51;;;;;;;56.83;17.00;;;10.30;99.90;;;;;;6283271;22;37456;-78
2024/03/13 02:16:18;;;;;;;54.90;18.10;;;10.30;99.90;;;;;;6310691;22;38891;-79
2024/03/13 02:18:49;;;;;;;54.97;18.67;;;10.30;99.90;;;;;;6282991;22;37241;-79
2024/03/13 02:21:15;;;;;;;52.00;18.30;;;10.30;99.90;;;;;;6282361;22;39697;-79
2024/03/13 02:23:41;;;;;;;54.47;16.90;;;10.30;99.90;;;;;;6282965;22;39136;-78
2024/03/13 02:26:07;;;;;;;46.27;18.00;;;10.30;99.90;;;;;;6283165;22;38840;-79
2024/03/13 02:28:36;;;;;;;48.90;17.40;;;10.30;99.90;;;;;;6281862;22;38319;-79
2024/03/13 02:31:02;;;;;;;53.25;16.50;;;10.30;99.90;;;;;;6279658;22;39550;-80
2024/03/13 02:33:29;;;;;;;50.67;15.40;;;10.30;99.90;;;;;;6308937;22;38405;-79
2024/03/13 02:35:55;;;;;;;45.63;14.63;;;10.30;99.90;;;;;;6311288;22;38674;-79
2024/03/13 02:38:21;;;;;;;47.37;14.53;;;10.40;99.90;;;;;;6281694;22;38423;-78
2024/03/13 02:40:48;;;;;;;58.57;15.97;;;10.30;99.90;;;;;;6308332;22;39348;-78
2024/03/13 02:43:14;;;;;;;53.90;15.47;;;10.40;99.90;;;;;;6279966;22;39226;-79
2024/03/13 02:45:46;;;;;;;55.25;17.45;;;10.40;99.90;;;;;;6279550;22;36951;-78
2024/03/13 02:48:12;;;;;;;48.33;13.82;;;10.40;99.90;;;;;;6277855;22;39089;-78
2024/03/13 02:50:40;;;;;;;44.63;15.13;;;10.40;99.90;;;;;;6296078;22;39686;-79
2024/03/13 02:53:07;;;;;;;61.60;14.67;;;10.40;99.90;;;;;;6281341;22;40847;-78
2024/03/13 02:55:37;;;;;;;42.00;13.37;;;10.40;99.90;;;;;;6309241;22;38063;-77
2024/03/13 02:58:03;;;;;;;53.33;14.30;;;10.40;99.90;;;;;;6279413;22;38387;-78
2024/03/13 03:00:30;;;;;;;62.27;15.20;;;10.40;99.90;;;;;;6278575;22;39899;-78
2024/03/13 03:02:57;;;;;;;61.83;15.63;;;10.40;99.90;;;;;;6279063;22;39640;-78
2024/03/13 03:05:24;;;;;;;67.73;15.33;;;10.40;99.90;;;;;;6307587;22;38890;-77
2024/03/13 03:07:51;;;;;;;65.90;13.73;;;10.40;99.90;;;;;;6282027;22;37944;-78
2024/03/13 03:10:17;;;;;;;52.60;13.17;;;10.40;99.90;;;;;;6280122;22;39627;-78
2024/03/13 03:12:47;;;;;;;65.10;14.75;;;10.40;99.90;;;;;;6282574;22;37357;-78
2024/03/13 03:15:14;;;;;;;72.30;14.95;;;10.30;99.90;;;;;;6284524;22;39742;-78
2024/03/13 03:17:40;;;;;;;64.30;14.70;;;10.30;99.90;;;;;;6314720;22;37999;-77
2024/03/13 03:20:07;;;;;;;65.20;13.57;;;10.30;99.90;;;;;;6311197;22;39489;-78
2024/03/13 03:22:33;;;;;;;77.13;15.03;;;10.40;99.90;;;;;;6284544;22;39128;-79
2024/03/13 03:25:00;;;;;;;65.37;14.17;;;10.40;99.90;;;;;;6285553;22;39293;-79
2024/03/13 03:27:26;;;;;;;59.63;14.07;;;10.30;99.90;;;;;;6283027;22;36436;-79
2024/03/13 03:29:52;;;;;;;62.30;12.87;;;10.40;99.90;;;;;;6311424;22;39896;-78
2024/03/13 03:32:21;;;;;;;54.40;12.35;;;10.40;99.90;;;;;;6282971;22;38867;-79
2024/03/13 03:34:47;;;;;;;53.43;11.73;;;10.40;99.90;;;;;;6282927;22;39345;-78
2024/03/13 03:37:15;;;;;;;55.28;11.88;;;10.40;99.90;;;;;;6280766;22;38017;-79
2024/03/13 03:39:41;;;;;;;64.27;13.17;;;10.40;99.90;;;;;;6283558;22;38158;-78
2024/03/13 03:42:07;;;;;;;63.72;11.50;;;10.40;99.90;;;;;;6282367;22;39953;-79
2024/03/13 03:44:33;;;;;;;59.33;10.97;;;10.40;99.90;;;;;;6283883;22;37907;-78
2024/03/13 03:47:00;;;;;;;64.00;11.20;;;10.40;99.90;;;;;;6283296;22;38189;-79
2024/03/13 03:49:26;;;;;;;45.87;10.33;;;10.40;99.90;;;;;;6310410;22;38959;-78
2024/03/13 03:51:53;;;;;;;43.67;10.65;;;10.40;99.90;;;;;;6312250;22;38319;-78
2024/03/13 03:54:21;;;;;;;44.40;9.40;;;10.40;99.90;;;;;;6281857;22;36915;-78
2024/03/13 03:56:48;;;;;;;61.00;10.93;;;10.40;99.90;;;;;;6270499;22;36542;-78
2024/03/13 03:59:14;;;;;;;46.28;9.52;;;10.40;99.90;;;;;;6281243;22;39390;-79
2024/03/13 04:01:41;;;;;;;60.80;11.00;;;10.40;99.90;;;;;;6280004;22;39165;-78
2024/03/13 04:04:08;;;;;;;46.63;9.82;;;10.40;99.90;;;;;;6278710;22;40031;-79
2024/03/13 04:06:34;;;;;;;51.05;8.80;;;10.40;99.90;;;;;;6282839;22;37898;-78
2024/03/13 04:09:14;;;;;;;40.77;8.37;;;10.40;99.90;;;;;;6282869;22;39556;-78
2024/03/13 04:11:44;;;;;;;53.37;10.43;;;10.40;99.90;;;;;;6281875;22;48238;-79
2024/03/13 04:14:13;;;;;;;40.28;8.88;;;10.40;99.90;;;;;;6310346;22;39248;-79
2024/03/13 04:16:43;;;;;;;37.13;7.30;;;10.40;99.90;;;;;;6281145;22;37137;-78
2024/03/13 04:19:10;;;;;;;52.10;8.32;;;10.40;99.90;;;;;;6282894;22;39274;-77
2024/03/13 04:21:40;;;;;;;50.77;8.97;;;10.40;99.90;;;;;;6285370;22;40394;-78
2024/03/13 04:24:09;;;;;;;49.33;8.40;;;10.40;99.90;;;;;;6283600;22;38454;-79
2024/03/13 04:26:42;;;;;;;47.70;8.40;;;10.40;99.90;;;;;;6311456;22;37375;-77
2024/03/13 04:29:10;;;;;;;43.53;7.33;;;10.40;99.90;;;;;;6310494;22;39624;-78
2024/03/13 04:31:39;;;;;;;35.03;6.33;;;10.30;99.90;;;;;;6290613;22;37294;-78
2024/03/13 04:34:08;;;;;;;42.73;6.90;;;10.40;99.90;;;;;;6290714;22;36886;-79
2024/03/13 04:36:38;;;;;;;39.20;7.67;;;10.40;99.90;;;;;;6321972;22;37889;-78
2024/03/13 04:39:07;;;;;;;31.50;7.23;;;10.40;99.90;;;;;;6320976;22;38709;-78
2024/03/13 04:41:33;;;;;;;33.33;6.27;;;10.40;99.90;;;;;;6319829;22;38606;-79
2024/03/13 04:44:03;;;;;;;40.33;7.40;;;10.50;99.90;;;;;;6294453;22;38431;-79
2024/03/13 04:46:29;;;;;;;37.03;6.33;;;10.50;99.90;;;;;;6290824;22;47739;-78
2024/03/13 04:48:55;;;;;;;39.43;7.77;;;10.50;99.90;;;;;;6318693;22;39175;-79
2024/03/13 04:51:22;;;;;;;31.53;6.50;;;10.50;99.90;;;;;;6295561;22;37305;-78
2024/03/13 04:53:48;;;;;;;29.23;7.03;;;10.50;99.90;;;;;;6287242;22;37763;-78
2024/03/13 04:56:14;;;;;;;36.57;6.50;;;10.50;99.90;;;;;;6289381;22;37324;-77
2024/03/13 04:58:41;;;;;;;20.83;5.43;;;10.50;99.90;;;;;;6288939;22;37731;-78
2024/03/13 05:01:16;;;;;;;37.58;6.78;;;10.50;99.90;;;;;;6290576;22;37203;-78
2024/03/13 05:03:43;;;;;;;40.23;7.23;;;10.50;99.90;;;;;;6285791;22;37309;-78
2024/03/13 05:06:09;;;;;;;31.17;6.93;;;10.50;99.90;;;;;;6280212;22;37605;-78
2024/03/13 05:08:35;;;;;;;31.27;7.60;;;10.50;99.90;;;;;;6315480;22;38003;-78
2024/03/13 05:11:02;;;;;;;32.27;6.67;;;10.50;99.90;;;;;;6287049;22;37210;-78
2024/03/13 05:13:28;;;;;;;41.10;8.27;;;10.50;99.90;;;;;;6314865;22;39450;-78
2024/03/13 05:15:54;;;;;;;29.43;7.17;;;10.50;99.90;;;;;;6285062;22;36239;-79
2024/03/13 05:18:20;;;;;;;41.90;8.93;;;10.50;99.90;;;;;;6283436;22;38908;-79
2024/03/13 05:20:47;;;;;;;43.13;9.80;;;10.50;99.90;;;;;;6313017;22;38409;-78
2024/03/13 05:23:13;;;;;;;41.93;9.50;;;10.50;99.90;;;;;;6285395;22;38597;-78
2024/03/13 05:25:39;;;;;;;39.97;9.07;;;10.50;99.90;;;;;;6284119;22;36653;-79
2024/03/13 05:28:05;;;;;;;35.13;8.80;;;10.50;99.90;;;;;;6285000;22;38549;-78
2024/03/13 05:30:31;;;;;;;36.33;8.87;;;10.50;99.90;;;;;;6313027;22;38585;-77
2024/03/13 05:32:58;;;;;;;41.53;10.07;;;10.50;99.90;;;;;;6298768;22;38477;-78
2024/03/13 05:35:24;;;;;;;37.43;9.93;;;10.50;99.90;;;;;;6281424;22;36346;-78
2024/03/13 05:37:50;;;;;;;36.10;9.23;;;10.50;99.90;;;;;;6311390;22;39256;-79
2024/03/13 05:40:16;;;;;;;50.25;10.85;;;10.50;99.90;;;;;;6282374;22;38517;-79
2024/03/13 05:42:43;;;;;;;39.23;8.80;;;10.50;99.90;;;;;;6281397;22;37251;-79
2024/03/13 05:45:09;;;;;;;30.98;8.57;;;10.60;99.90;;;;;;6309877;22;38321;-80
2024/03/13 05:47:36;;;;;;;32.35;9.80;;;10.60;99.90;;;;;;6282196;22;37750;-78
2024/03/13 05:50:03;;;;;;;46.03;12.15;;;10.60;99.90;;;;;;6311533;22;39097;-79
2024/03/13 05:52:29;;;;;;;34.50;9.47;;;10.60;99.90;;;;;;6316109;22;38343;-79
2024/03/13 05:54:55;;;;;;;44.20;11.00;;;10.60;99.90;;;;;;6289839;22;36118;-78
2024/03/13 05:57:24;;;;;;;35.55;9.95;;;10.60;99.90;;;;;;6283725;22;38054;-78
2024/03/13 05:59:51;;;;;;;26.90;8.02;;;10.60;99.90;;;;;;6284574;22;38736;-76
2024/03/13 06:02:17;;;;;;;38.20;9.20;;;10.60;99.90;;;;;;6281694;22;37381;-77
2024/03/13 06:04:45;;;;;;;39.15;10.25;;;10.60;99.90;;;;;;6283770;22;36080;-78
2024/03/13 06:07:12;;;;;;;36.17;8.87;;;10.60;99.90;;;;;;6308290;22;38818;-78
2024/03/13 06:09:41;;;;;;;34.27;8.83;;;10.60;99.90;;;;;;6308368;22;38497;-76
2024/03/13 06:12:07;;;;;;;41.90;9.97;;;10.60;99.90;;;;;;6308321;22;38206;-77
2024/03/13 06:14:33;;;;;;;35.17;8.57;;;10.60;99.90;;;;;;6283598;22;36304;-77
2024/03/13 06:16:59;;;;;;;33.47;8.23;;;10.60;99.90;;;;;;6310575;22;38511;-77
2024/03/13 06:19:29;;;;;;;33.03;9.02;;;10.60;99.90;;;;;;6307922;22;39573;-78
2024/03/13 06:21:56;;;;;;;43.57;9.90;;;10.60;99.90;;;;;;6280214;22;40043;-77
2024/03/13 06:24:32;;;;;;;35.25;9.02;;;10.60;99.90;;;;;;6309492;22;38482;-78
2024/03/13 06:27:05;;;;;;;31.67;8.55;;;10.60;99.90;;;;;;6308537;22;40090;-77
2024/03/13 06:32:16;;;;;;;40.10;12.20;;;10.60;99.90;;;;;;6301311;22;40141;-77
2024/03/13 06:34:42;;;;;;;30.88;10.40;;;10.70;99.90;;;;;;6272753;22;38637;-77
2024/03/13 06:37:08;;;;;;;38.63;10.63;;;10.60;99.90;;;;;;6263656;22;37707;-78
2024/03/13 06:39:35;;;;;;;34.25;10.75;;;10.60;99.90;;;;;;6295868;22;38739;-77
2024/03/13 06:42:02;;;;;;;30.52;10.65;;;10.60;99.90;;;;;;6266616;22;38573;-76
2024/03/13 06:44:28;;;;;;;42.37;12.40;;;10.60;99.90;;;;;;6297254;22;38722;-77
2024/03/13 06:46:54;;;;;;;37.23;10.60;;;10.70;99.90;;;;;;6269068;22;39213;-77
2024/03/13 06:49:20;;;;;;;36.77;12.07;;;10.70;99.90;;;;;;6292476;22;39721;-77
2024/03/13 06:51:47;;;;;;;45.40;12.25;;;10.70;99.90;;;;;;6269572;22;38213;-76
2024/03/13 06:54:13;;;;;;;39.07;13.30;;;10.70;99.90;;;;;;6295291;22;37712;-77
2024/03/13 06:56:39;;;;;;;36.60;12.77;;;10.70;99.90;;;;;;6266667;22;39276;-77
2024/03/13 06:59:06;;;;;;;42.90;14.00;;;10.70;99.90;;;;;;6263484;22;37405;-77
2024/03/13 07:01:32;;;;;;;41.83;13.55;;;10.70;99.90;;;;;;6265337;22;38031;-77
2024/03/13 07:03:59;;;;;;;49.53;16.85;;;10.70;99.90;;;;;;6265524;22;36647;-78
2024/03/13 07:06:25;;;;;;;46.90;15.82;;;10.80;99.90;;;;;;6263113;22;37958;-76
2024/03/13 07:08:51;;;;;;;50.33;14.03;;;10.80;99.90;;;;;;6264442;22;39509;-77
2024/03/13 07:11:17;;;;;;;42.53;14.32;;;10.80;99.90;;;;;;6261724;22;37825;-77
2024/03/13 07:13:43;;;;;;;49.95;14.45;;;10.80;99.90;;;;;;6264332;22;38859;-77
2024/03/13 07:16:10;;;;;;;42.70;12.70;;;10.80;99.90;;;;;;6289836;22;39471;-78
2024/03/13 07:18:36;;;;;;;41.10;12.32;;;10.80;99.90;;;;;;6290121;22;39007;-77
2024/03/13 07:21:03;;;;;;;35.90;10.60;;;10.80;99.90;;;;;;6261930;22;38986;-77
2024/03/13 07:23:29;;;;;;;54.58;14.13;;;10.80;99.90;;;;;;6263700;22;39272;-77
2024/03/13 07:25:56;;;;;;;45.83;11.07;;;10.90;99.90;;;;;;6291249;22;38464;-77
2024/03/13 07:28:22;;;;;;;47.40;12.47;;;10.80;99.90;;;;;;6263243;22;38681;-77
2024/03/13 07:30:48;;;;;;;42.30;12.90;;;10.80;99.90;;;;;;6265097;22;38932;-77
2024/03/13 07:33:15;;;;;;;49.03;12.68;;;10.80;99.90;;;;;;6263877;22;36810;-78
2024/03/13 07:35:41;;;;;;;38.07;14.07;;;10.80;99.90;;;;;;6263468;22;37489;-77
2024/03/13 07:38:11;;;;;;;50.43;14.00;;;10.90;99.90;;;;;;6292556;22;38292;-79
2024/03/13 07:40:37;;;;;;;44.70;13.70;;;10.80;99.90;;;;;;6268437;22;39779;-78
2024/03/13 07:43:05;;;;;;;45.95;13.40;;;10.80;99.90;;;;;;6261998;22;36580;-77
2024/03/13 07:45:39;;;;;;;40.05;11.02;;;10.90;99.90;;;;;;6262009;22;40570;-78
2024/03/13 07:48:15;;;;;;;34.85;10.27;;;10.90;99.90;;;;;;6290483;22;38162;-78
2024/03/13 07:50:41;;;;;;;33.58;9.82;;;10.90;99.90;;;;;;6263554;22;37366;-78
2024/03/13 07:53:08;;;;;;;36.53;10.02;;;10.90;99.90;;;;;;6264646;22;37693;-77
2024/03/13 07:55:36;;;;;;;30.65;9.85;;;11.00;99.90;;;;;;6264106;22;38023;-78
2024/03/13 07:58:03;;;;;;;32.20;10.10;;;11.00;99.90;;;;;;6262628;22;37626;-78
2024/03/13 08:00:29;;;;;;;42.00;10.68;;;11.10;99.90;;;;;;6260345;22;47350;-77
2024/03/13 08:02:56;;;;;;;27.80;8.15;;;11.10;99.90;;;;;;6264586;22;36403;-77
2024/03/13 08:05:22;;;;;;;32.28;9.20;;;11.10;99.90;;;;;;6290740;22;40571;-78
2024/03/13 08:07:49;;;;;;;32.22;9.07;;;11.20;99.90;;;;;;6280405;22;39756;-76
2024/03/13 08:10:25;;;;;;;30.83;8.88;;;11.20;99.90;;;;;;6265141;22;39485;-78
2024/03/13 08:12:58;;;;;;;26.63;8.13;;;11.30;99.90;;;;;;6263929;22;36766;-78
2024/03/13 08:15:25;;;;;;;22.15;7.40;;;11.40;99.90;;;;;;6290894;22;38784;-78
2024/03/13 08:17:51;;;;;;;22.92;7.10;;;11.40;99.90;;;;;;6268319;22;37291;-77
2024/03/13 08:20:19;;;;;;;31.13;7.72;;;11.30;99.90;;;;;;6293929;22;38061;-78
2024/03/13 08:22:45;;;;;;;36.08;8.45;;;11.30;99.90;;;;;;6294648;22;37313;-77
2024/03/13 08:25:19;;;;;;;32.45;6.60;;;11.50;99.90;;;;;;6266048;22;37816;-78
2024/03/13 08:27:46;;;;;;;30.77;6.60;;;11.40;99.90;;;;;;6295669;22;38029;-78
2024/03/13 08:30:18;;;;;;;23.83;6.95;;;11.40;99.90;;;;;;6296189;22;37839;-77
2024/03/13 08:32:44;;;;;;;25.38;7.25;;;11.50;99.90;;;;;;6301232;22;37482;-78
2024/03/13 08:35:13;;;;;;;23.80;5.75;;;11.50;99.90;;;;;;6270461;22;38127;-78
2024/03/13 08:37:42;;;;;;;24.70;6.68;;;11.40;99.90;;;;;;6297129;22;38846;-78
2024/03/13 08:40:11;;;;;;;24.42;6.38;;;11.40;99.90;;;;;;6296039;22;38654;-78
2024/03/13 08:42:39;;;;;;;19.17;5.20;;;11.40;99.90;;;;;;6271546;22;37175;-77
2024/03/13 08:45:10;;;;;;;27.27;7.13;;;11.40;99.90;;;;;;6295500;22;38821;-77
2024/03/13 08:47:38;;;;;;;26.33;6.90;;;11.50;99.90;;;;;;6266576;22;37389;-77
2024/03/13 08:50:05;;;;;;;18.30;4.90;;;11.50;99.90;;;;;;6294641;22;38867;-78
2024/03/13 08:52:32;;;;;;;18.77;4.95;;;11.50;99.90;;;;;;6267892;22;36402;-78
2024/03/13 08:54:58;;;;;;;25.40;6.18;;;11.60;99.90;;;;;;6293874;22;38753;-78
2024/03/13 08:57:24;;;;;;;31.42;6.32;;;11.50;99.90;;;;;;6293841;22;39821;-78
2024/03/13 08:59:51;;;;;;;26.83;7.53;;;11.60;99.90;;;;;;6268237;22;37418;-78
2024/03/13 09:02:17;;;;;;;24.15;6.68;;;11.60;99.90;;;;;;6266792;22;36066;-78
2024/03/13 09:04:45;;;;;;;25.10;5.45;;;11.60;99.90;;;;;;6295604;22;40452;-77
2024/03/13 09:07:11;;;;;;;26.38;5.60;;;11.60;99.90;;;;;;6265624;22;38670;-78
2024/03/13 09:09:38;;;;;;;21.73;4.57;;;11.60;99.90;;;;;;6270096;22;38287;-77
2024/03/13 09:12:08;;;;;;;23.35;5.40;;;11.60;99.90;;;;;;6293577;22;37226;-78
2024/03/13 09:14:37;;;;;;;21.55;4.57;;;11.70;99.90;;;;;;6265307;22;37987;-79
2024/03/13 09:17:08;;;;;;;24.83;5.07;;;11.70;99.90;;;;;;6291050;22;39348;-78
2024/03/13 09:19:37;;;;;;;23.87;3.80;;;11.70;99.90;;;;;;6267543;22;38583;-78
2024/03/13 09:22:04;;;;;;;17.52;3.72;;;11.70;99.90;;;;;;6266302;22;36834;-78
2024/03/13 09:24:31;;;;;;;15.93;3.85;;;11.80;99.90;;;;;;6296466;22;39258;-77
2024/03/13 09:26:58;;;;;;;17.55;3.63;;;12.00;99.90;;;;;;6267144;22;39068;-78
2024/03/13 09:29:24;;;;;;;16.13;3.25;;;12.00;99.90;;;;;;6262393;22;37146;-78
2024/03/13 09:31:51;;;;;;;22.05;3.60;;;11.90;99.90;;;;;;6293564;22;37831;-78
2024/03/13 09:34:17;;;;;;;17.83;3.28;;;11.80;99.90;;;;;;6269380;22;40254;-78
2024/03/13 09:36:43;;;;;;;13.15;3.00;;;11.90;99.90;;;;;;6269132;22;38862;-77
2024/03/13 09:39:11;;;;;;;18.60;3.17;;;11.90;99.90;;;;;;6263983;22;38745;-77
2024/03/13 09:41:37;;;;;;;19.00;4.05;;;11.90;99.90;;;;;;6296140;22;37664;-78
2024/03/13 09:44:04;;;;;;;14.93;3.05;;;11.90;99.90;;;;;;6265336;22;39437;-78
2024/03/13 09:46:32;;;;;;;12.75;2.60;;;12.00;99.90;;;;;;6267675;22;38467;-77
2024/03/13 09:49:01;;;;;;;18.33;3.20;;;12.10;99.90;;;;;;6264727;22;38358;-77
2024/03/13 09:51:29;;;;;;;13.70;2.88;;;12.30;99.90;;;;;;6262250;22;47721;-78
2024/03/13 09:53:56;;;;;;;14.95;2.78;;;12.50;99.90;;;;;;6294436;22;38598;-77
2024/03/13 09:56:25;;;;;;;17.60;2.92;;;12.40;99.90;;;;;;6264004;22;37712;-76
2024/03/13 09:58:54;;;;;;;10.95;2.30;;;12.40;99.90;;;;;;6296033;22;39360;-76
2024/03/13 10:01:27;;;;;;;15.30;2.30;;;12.40;99.90;;;;;;6292607;22;37383;-77
2024/03/13 10:04:02;;;;;;;12.80;2.33;;;12.50;99.90;;;;;;6266447;22;39675;-77
2024/03/13 10:06:32;;;;;;;13.50;2.53;;;12.40;99.90;;;;;;6266137;22;47619;-77
2024/03/13 10:09:03;;;;;;;17.50;2.67;;;12.40;99.90;;;;;;6265992;22;37632;-78
2024/03/13 10:11:31;;;;;;;12.20;2.70;;;12.30;99.90;;;;;;6264329;22;47191;-78
2024/03/13 10:13:59;;;;;;;19.17;3.20;;;12.30;99.90;;;;;;6294644;22;39131;-77
2024/03/13 10:16:26;;;;;;;15.75;2.60;;;12.30;99.90;;;;;;6266297;22;40058;-78
2024/03/13 10:18:54;;;;;;;17.95;3.30;;;12.30;99.90;;;;;;6291336;22;38333;-78
2024/03/13 10:21:28;;;;;;;13.57;2.58;;;12.30;99.90;;;;;;6292326;22;38061;-77
2024/03/13 10:23:59;;;;;;;15.45;2.88;;;12.30;99.90;;;;;;6268754;22;38839;-77
2024/03/13 10:26:26;;;;;;;14.23;3.28;;;12.30;99.90;;;;;;6262709;22;39925;-77
2024/03/13 10:28:53;;;;;;;18.88;3.20;;;12.20;99.90;;;;;;6265564;22;37351;-77
2024/03/13 10:31:21;;;;;;;13.23;2.90;;;12.20;99.90;;;;;;6262173;22;36531;-77
2024/03/13 10:33:49;;;;;;;16.83;2.83;;;12.30;99.90;;;;;;6266518;22;39275;-78
2024/03/13 10:36:16;;;;;;;11.38;2.28;;;12.30;99.90;;;;;;6264355;22;37329;-78
2024/03/13 10:38:46;;;;;;;9.77;2.50;;;12.30;99.90;;;;;;6260050;22;36791;-78
2024/03/13 10:41:12;;;;;;;6.93;2.13;;;12.20;99.90;;;;;;6261919;22;38798;-79
2024/03/13 10:43:41;;;;;;;13.65;2.22;;;12.10;99.90;;;;;;6262077;22;37522;-78
2024/03/13 10:46:11;;;;;;;10.85;2.20;;;12.00;99.90;;;;;;6256707;22;38674;-78
2024/03/13 10:48:39;;;;;;;13.88;2.20;;;12.10;99.90;;;;;;6270276;22;37186;-78
2024/03/13 10:51:12;;;;;;;8.48;2.03;;;12.10;99.90;;;;;;6268330;22;37598;-78
2024/03/13 10:53:39;;;;;;;9.77;2.17;;;12.20;99.90;;;;;;6269290;22;37435;-78
2024/03/13 10:56:16;;;;;;;8.18;2.13;;;12.30;99.90;;;;;;6295491;22;38471;-78
2024/03/13 10:58:49;;;;;;;6.45;1.90;;;12.40;99.90;;;;;;6299852;22;38439;-79
2024/03/13 11:01:16;;;;;;;14.43;2.15;;;12.50;99.90;;;;;;6269818;22;39293;-78
2024/03/13 11:03:43;;;;;;;12.23;1.98;;;12.50;99.90;;;;;;6273469;22;39249;-77
2024/03/13 11:06:14;;;;;;;9.88;1.90;;;12.50;99.90;;;;;;6296314;22;39376;-77
2024/03/13 11:08:44;;;;;;;8.32;2.30;;;12.50;99.90;;;;;;6295039;22;37986;-77
2024/03/13 11:11:14;;;;;;;11.68;2.22;;;12.40;99.90;;;;;;6264934;22;36346;-78
2024/03/13 11:13:44;;;;;;;10.07;1.88;;;12.40;99.90;;;;;;6265115;22;39452;-78
2024/03/13 11:16:11;;;;;;;12.20;2.97;;;12.40;99.90;;;;;;6275276;22;37291;-77
2024/03/13 11:18:42;;;;;;;15.50;2.55;;;12.50;99.90;;;;;;6280541;22;37975;-77
2024/03/13 11:21:14;;;;;;;11.82;1.92;;;12.60;99.90;;;;;;6265239;22;37182;-77
2024/03/13 11:23:43;;;;;;;15.13;2.50;;;12.50;99.90;;;;;;6289040;22;39864;-78
2024/03/13 11:26:12;;;;;;;14.15;2.13;;;12.60;99.90;;;;;;6261393;22;39192;-78
2024/03/13 11:28:40;;;;;;;8.40;1.65;;;12.50;99.90;;;;;;6263784;22;37365;-77
2024/03/13 11:31:09;;;;;;;10.05;1.88;;;12.60;99.90;;;;;;6262617;22;36658;-77
2024/03/13 11:33:36;;;;;;;12.50;2.05;;;12.50;99.90;;;;;;6264711;22;38710;-77
2024/03/13 11:36:03;;;;;;;10.27;2.05;;;12.50;99.90;;;;;;6258365;22;38790;-77
2024/03/13 11:38:33;;;;;;;4.85;1.80;;;12.50;99.90;;;;;;6264903;22;37915;-77
2024/03/13 11:41:00;;;;;;;12.98;1.88;;;12.50;99.90;;;;;;6267332;22;37720;-77
2024/03/13 11:43:26;;;;;;;10.38;1.75;;;12.50;99.90;;;;;;6264297;22;37569;-77
2024/03/13 11:45:52;;;;;;;8.48;1.45;;;12.50;99.90;;;;;;6262248;22;39590;-77
2024/03/13 11:48:20;;;;;;;8.52;1.55;;;12.50;99.90;;;;;;6294098;22;38723;-77
2024/03/13 11:51:17;;;;;;;6.47;1.50;;;12.40;99.90;;;;;;6265651;22;38187;-78
2024/03/13 11:53:45;;;;;;;6.65;1.15;;;12.40;99.90;;;;;;6260423;22;48538;-79
2024/03/13 11:56:21;;;;;;;7.38;1.50;;;12.40;99.90;;;;;;6291014;22;39367;-78
2024/03/13 11:58:48;;;;;;;10.43;1.90;;;12.40;99.90;;;;;;6265057;22;39993;-77
2024/03/13 12:01:14;;;;;;;3.55;1.15;;;12.40;99.90;;;;;;6263413;22;36250;-78
2024/03/13 12:03:44;;;;;;;6.70;1.13;;;12.40;99.90;;;;;;6295301;22;39501;-78
2024/03/13 12:06:22;;;;;;;4.70;1.08;;;12.40;99.90;;;;;;6290892;22;39861;-78
2024/03/13 12:08:49;;;;;;;3.75;0.98;;;12.40;99.90;;;;;;6263874;22;37189;-77
2024/03/13 12:11:20;;;;;;;6.15;1.17;;;12.40;99.90;;;;;;6291395;22;37282;-78
2024/03/13 12:13:47;;;;;;;6.00;2.42;;;12.50;99.90;;;;;;6263372;22;39308;-77
2024/03/13 12:16:14;;;;;;;4.45;0.95;;;12.60;99.90;;;;;;6261510;22;37409;-77
2024/03/13 12:18:47;;;;;;;3.03;1.23;;;12.60;99.90;;;;;;6263600;22;39302;-78
2024/03/13 12:21:13;;;;;;;2.40;1.00;;;12.60;99.90;;;;;;6290095;22;37386;-77
2024/03/13 12:23:40;;;;;;;6.32;1.50;;;12.50;99.90;;;;;;6292662;22;39587;-76
2024/03/13 12:26:06;;;;;;;5.60;1.88;;;12.50;99.90;;;;;;6264297;22;38707;-77
2024/03/13 12:28:33;;;;;;;4.35;1.83;;;12.60;99.90;;;;;;6291945;22;37761;-78
2024/03/13 12:31:00;;;;;;;5.57;1.50;;;12.50;99.90;;;;;;6274253;22;37985;-77
2024/03/13 12:33:26;;;;;;;8.32;1.65;;;12.60;99.90;;;;;;6261189;22;46524;-77
2024/03/13 12:35:56;;;;;;;4.85;1.60;;;12.70;99.90;;;;;;6260869;22;40883;-77
2024/03/13 12:38:38;;;;;;;8.77;2.25;;;12.80;99.90;;;;;;6287542;22;38960;-77
2024/03/13 12:41:07;;;;;;;4.70;2.15;;;12.90;99.90;;;;;;6259470;22;38854;-77
2024/03/13 12:43:34;;;;;;;9.65;2.47;;;12.90;99.90;;;;;;6258984;22;39539;-77
2024/03/13 12:46:03;;;;;;;9.10;2.53;;;13.00;99.90;;;;;;6257696;22;39173;-77
2024/03/13 12:48:33;;;;;;;7.22;2.60;;;13.20;99.90;;;;;;6257818;22;47230;-77
2024/03/13 12:51:01;;;;;;;5.32;2.50;;;13.20;99.90;;;;;;6288291;22;37371;-78
2024/03/13 12:53:30;;;;;;;8.00;2.65;;;13.30;99.50;;;;;;6260770;22;40953;-77
2024/03/13 12:55:57;;;;;;;7.72;2.78;;;13.40;99.10;;;;;;6284964;22;39755;-76
2024/03/13 12:58:27;;;;;;;14.35;2.55;;;13.50;94.60;;;;;;6287329;22;37870;-78
2024/03/13 13:00:53;;;;;;;10.02;3.22;;;13.50;86.40;;;;;;6259157;22;36865;-77